Alberhill, CA

8:03 PM PST on December 17, 2014 (GMT -0800)
The Jonesranch | Change Station
CLOSE
Current Station
Personal Weather Station
Location: Rancho Capistrano, Ca
Elevation: 3100 ft
Nearby Weather Stations

Elev 3100 ft 33.61 °N, 117.36 °W | Updated 9 seconds ago

Overcast
Overcast
41.5 °F
Feels Like 42 °F
N
0.0
Wind Variable Wind from SW
Gusts 0.0 mph

Today
High -- | Low -- °F
--% Chance of Precip.
Yesterday
High -- | Low -- °F
Precip. -- in
6:47 AM 4:43 PM
Waning Crescent, 17% visible
Pressure 30.09 in
Visibility 10.0 miles
Clouds Overcast 10000 ft
Windchill 42 °F
Dew Point 42 °F
Humidity 100%
Rainfall 0.33 in
Snow Depth Not available.
UV 0 out of 12
Pollen .90 out of 12
Air Quality Not available.
Flu Activity Not available.
METAR KF70 180355Z AUTO 13004KT 10SM OVC100 10/08 A3009 RMK AO1

More Conditions Fewer Conditions

Pressure 30.09 in
Visibility 10.0 miles
Clouds Overcast 10000 ft
Windchill 42 °F
Dew Point 42 °F
Humidity 100%
Rainfall 0.33 in
Snow Depth Not available.
UV 0 out of 12
Pollen .90 out of 12
Air Quality Not available.
Flu Activity Not available.
METAR KF70 180355Z AUTO 13004KT 10SM OVC100 10/08 A3009 RMK AO1

More Conditions Fewer Conditions

10-Day Weather Forecast

Almanac

Astronomy

Dec. 17, 2014 Rise Set
Actual Time
Civil Twilight
Nautical Twilight
Astronomical Twilight
Moon
Length of Visible Light
Length of Day
Tomorrow will be .
, % of the Moon is Illuminated

Today's Extremes

State Highs State Lows

Community

WunderPhotos

Upload Photos

1,778,879 photos uploaded!

WunderBlogs® & News

Nearby

Air Quality

  Air Quality AQ Index Pollutant
Not available.

Snow Depth

Station Depth Elevation

Earthquake Activity

City Distance Mag. Time & Date
Minimum magnitude displayed is 2.5.

Coastal Water Temperatures

Place Temperature

Nearby Weather Stations